Time;durP1;ratioP1;P1;durP2;ratioP2;P2;SDS_P1;SDS_P2;PMS_P1;PMS_P2;Temp;Humidity;BMP_temperature;BMP_pressure;BME280_temperature;BME280_humidity;BME280_pressure;Samples;Min_cycle;Max_cycle;Signal;HPM_P1;HPM_P2
2020/12/22 00:02:24;;;;;;;14.15;7.15;;;;;;;7.73;100.00;100069.88;5141070;28;20031;-79
2020/12/22 00:04:55;;;;;;;13.50;6.60;;;;;;;7.73;100.00;100069.88;5141151;28;20613;-80
2020/12/22 00:07:25;;;;;;;15.82;6.63;;;;;;;7.72;100.00;100074.22;5141451;28;20054;-79
2020/12/22 00:09:55;;;;;;;14.13;5.88;;;;;;;7.82;100.00;100075.63;5141552;28;20034;-79
2020/12/22 00:12:28;;;;;;;9.43;4.97;;;;;;;7.89;100.00;100071.09;5141197;28;20066;-79
2020/12/22 00:14:59;;;;;;;9.77;4.70;;;;;;;7.97;100.00;100058.66;5140750;28;20022;-79
2020/12/22 00:17:29;;;;;;;9.10;4.80;;;;;;;7.96;100.00;100043.97;5140996;28;20026;-79
2020/12/22 00:19:59;;;;;;;7.68;4.03;;;;;;;7.98;100.00;100050.81;5138699;28;20026;-79
2020/12/22 00:22:30;;;;;;;6.70;3.95;;;;;;;8.01;100.00;100048.13;5140619;28;20034;-79
2020/12/22 00:25:00;;;;;;;12.80;6.03;;;;;;;7.97;100.00;100036.13;5140543;28;20400;-79
2020/12/22 00:27:33;;;;;;;8.93;6.32;;;;;;;7.91;100.00;100033.69;5140005;28;20105;-79
2020/12/22 00:30:04;;;;;;;9.75;6.38;;;;;;;7.90;100.00;100025.97;5133078;28;20031;-79
2020/12/22 00:32:35;;;;;;;7.25;5.13;;;;;;;7.93;100.00;100034.53;5140819;28;20023;-79
2020/12/22 00:35:05;;;;;;;7.50;3.78;;;;;;;7.97;100.00;100010.09;5139716;28;20030;-79
2020/12/22 00:37:36;;;;;;;8.80;3.83;;;;;;;8.00;100.00;100014.31;5140443;28;20116;-79
2020/12/22 00:40:06;;;;;;;9.77;3.90;;;;;;;8.04;100.00;99998.56;5148350;28;20038;-79
2020/12/22 00:42:36;;;;;;;7.60;3.40;;;;;;;8.07;100.00;100001.06;5141105;28;20030;-79
2020/12/22 00:45:06;;;;;;;7.63;3.70;;;;;;;8.08;100.00;99991.50;5140885;28;20448;-79
2020/12/22 00:47:37;;;;;;;7.43;3.20;;;;;;;8.07;100.00;99987.22;5141224;28;20065;-79
2020/12/22 00:50:07;;;;;;;8.70;3.50;;;;;;;8.03;100.00;99976.06;5140731;28;20034;-79
2020/12/22 00:52:37;;;;;;;7.95;3.38;;;;;;;8.07;100.00;99977.63;5140568;28;20019;-79
2020/12/22 00:55:07;;;;;;;9.95;3.20;;;;;;;8.08;100.00;99979.34;5140953;28;20062;-79
2020/12/22 00:57:38;;;;;;;4.60;2.67;;;;;;;8.13;100.00;99972.25;5139525;28;20057;-79
2020/12/22 01:00:12;;;;;;;8.75;2.80;;;;;;;8.18;100.00;99965.13;5143171;28;20436;-79
2020/12/22 01:02:42;;;;;;;5.50;2.47;;;;;;;8.15;100.00;99962.63;5144194;28;20034;-79
2020/12/22 01:05:13;;;;;;;3.70;1.90;;;;;;;8.19;100.00;99966.84;5144419;28;20037;-79
2020/12/22 01:07:43;;;;;;;4.60;2.70;;;;;;;8.15;100.00;99967.81;5144478;28;20030;-79
2020/12/22 01:10:13;;;;;;;7.30;2.97;;;;;;;8.18;100.00;99967.75;5144130;28;20046;-79
2020/12/22 01:12:44;;;;;;;4.78;2.13;;;;;;;8.15;100.00;99967.81;5144088;28;20417;-79
2020/12/22 01:15:14;;;;;;;3.88;1.70;;;;;;;8.23;100.00;99959.78;5144179;28;20041;-79
2020/12/22 01:17:44;;;;;;;3.75;1.80;;;;;;;8.30;100.00;99951.69;5143962;28;20469;-79
2020/12/22 01:20:15;;;;;;;3.20;1.40;;;;;;;8.24;100.00;99954.50;5144193;28;20511;-79
2020/12/22 01:22:45;;;;;;;3.38;1.65;;;;;;;8.24;100.00;99949.28;5143642;28;20425;-79
2020/12/22 01:25:16;;;;;;;3.25;1.35;;;;;;;8.33;100.00;99948.97;5144208;28;20054;-79
2020/12/22 01:27:46;;;;;;;2.95;1.48;;;;;;;8.25;100.00;99945.78;5143400;28;20515;-79
2020/12/22 01:30:16;;;;;;;2.75;1.30;;;;;;;8.29;100.00;99941.31;5144146;28;20473;-79
2020/12/22 01:32:47;;;;;;;5.13;1.25;;;;;;;8.32;100.00;99949.00;5144125;28;20031;-79
2020/12/22 01:35:17;;;;;;;2.92;1.30;;;;;;;8.20;100.00;99937.31;5143475;28;20098;-79
2020/12/22 01:37:48;;;;;;;3.20;1.30;;;;;;;8.34;100.00;99948.06;5143485;28;20027;-79
2020/12/22 01:40:18;;;;;;;3.67;1.50;;;;;;;8.30;100.00;99949.09;5150704;28;20033;-79
2020/12/22 01:42:49;;;;;;;2.70;1.30;;;;;;;8.35;100.00;99952.38;5143951;28;20030;-79
2020/12/22 01:45:19;;;;;;;3.05;1.00;;;;;;;8.35;100.00;99943.72;5143295;28;20090;-79
2020/12/22 01:47:50;;;;;;;2.38;0.70;;;;;;;8.40;100.00;99937.41;5143242;28;20026;-79
2020/12/22 01:50:21;;;;;;;3.15;0.93;;;;;;;8.50;100.00;99940.53;5143205;28;20026;-79
2020/12/22 01:52:51;;;;;;;1.08;0.60;;;;;;;8.60;100.00;99941.91;5142709;28;20054;-79
2020/12/22 01:55:22;;;;;;;1.67;0.75;;;;;;;8.62;100.00;99937.47;5137044;28;20022;-79
2020/12/22 01:57:52;;;;;;;1.60;0.70;;;;;;;8.68;100.00;99940.69;5141801;28;20202;-79
2020/12/22 02:00:22;;;;;;;1.20;0.70;;;;;;;8.68;100.00;99934.63;5140244;28;20796;-79
2020/12/22 02:02:53;;;;;;;0.65;0.65;;;;;;;8.72;100.00;99926.63;5142917;28;20023;-79
2020/12/22 02:05:23;;;;;;;1.05;0.63;;;;;;;8.74;100.00;99924.00;5143229;28;20065;-79
2020/12/22 02:07:54;;;;;;;4.22;0.70;;;;;;;8.82;100.00;99914.97;5143602;28;20468;-79
2020/12/22 02:10:24;;;;;;;1.13;0.65;;;;;;;8.87;100.00;99905.22;5136133;28;20489;-79
2020/12/22 02:12:54;;;;;;;1.00;0.65;;;;;;;8.87;100.00;99893.97;5141391;28;20030;-79
2020/12/22 02:15:25;;;;;;;2.05;0.70;;;;;;;8.89;100.00;99894.75;5147668;28;20019;-79
2020/12/22 02:17:56;;;;;;;1.13;0.65;;;;;;;8.90;100.00;99888.63;5125193;28;20029;-79
2020/12/22 02:20:26;;;;;;;1.10;0.60;;;;;;;8.92;100.00;99873.78;5143539;28;20026;-79
2020/12/22 02:22:56;;;;;;;0.82;0.52;;;;;;;8.93;100.00;99867.66;5142225;28;20076;-79
2020/12/22 02:25:27;;;;;;;1.05;0.75;;;;;;;8.96;100.00;99863.16;5153103;28;20033;-79
2020/12/22 02:27:57;;;;;;;1.80;0.70;;;;;;;8.98;100.00;99868.28;5156490;28;20019;-79
2020/12/22 02:30:27;;;;;;;0.60;0.50;;;;;;;9.02;100.00;99857.69;5161192;28;20380;-79
2020/12/22 02:32:57;;;;;;;1.42;0.60;;;;;;;9.01;100.00;99853.41;5156858;28;20114;-79
2020/12/22 02:35:29;;;;;;;1.17;0.70;;;;;;;9.06;100.00;99856.66;5152756;28;20026;-80
2020/12/22 02:37:59;;;;;;;0.70;0.60;;;;;;;9.00;100.00;99851.69;5161104;28;20026;-79
2020/12/22 02:40:30;;;;;;;1.08;0.60;;;;;;;8.98;100.00;99852.66;5162744;28;20033;-79
2020/12/22 02:43:18;;;;;;;1.02;0.55;;;;;;;9.14;100.00;99845.00;5163744;28;20026;-80
2020/12/22 02:45:48;;;;;;;0.65;0.47;;;;;;;9.19;100.00;99842.22;5163551;28;20030;-80
2020/12/22 02:48:18;;;;;;;0.85;0.50;;;;;;;9.13;100.00;99834.66;5146217;28;20025;-79
2020/12/22 02:50:49;;;;;;;1.02;0.50;;;;;;;9.23;100.00;99835.94;5162930;28;20152;-79
2020/12/22 02:53:19;;;;;;;0.50;0.40;;;;;;;9.28;100.00;99818.38;5160597;28;20026;-79
2020/12/22 02:55:50;;;;;;;0.50;0.50;;;;;;;9.36;100.00;99816.28;5143782;28;20023;-80
2020/12/22 02:58:21;;;;;;;0.50;0.40;;;;;;;9.29;100.00;99820.91;5143697;28;20054;-79
2020/12/22 03:00:51;;;;;;;0.95;0.40;;;;;;;9.37;100.00;99804.94;5143552;28;20027;-79
2020/12/22 03:03:21;;;;;;;0.45;0.40;;;;;;;9.43;100.00;99799.44;5141122;28;20027;-79
2020/12/22 03:05:52;;;;;;;0.68;0.55;;;;;;;9.37;100.00;99802.31;5143274;28;20114;-80
2020/12/22 03:08:22;;;;;;;0.75;0.50;;;;;;;9.40;100.00;99810.00;5143238;28;20027;-80
2020/12/22 03:10:52;;;;;;;0.88;0.60;;;;;;;9.47;100.00;99806.25;5143481;28;20038;-80
2020/12/22 03:13:23;;;;;;;0.70;0.60;;;;;;;9.50;100.00;99787.84;5142536;28;20026;-79
2020/12/22 03:15:53;;;;;;;0.98;0.60;;;;;;;9.53;100.00;99793.78;5143550;28;20042;-79
2020/12/22 03:18:23;;;;;;;1.05;0.73;;;;;;;9.47;100.00;99788.00;5142486;28;20081;-79
2020/12/22 03:20:53;;;;;;;1.35;0.88;;;;;;;9.57;100.00;99790.13;5143266;28;20226;-79
2020/12/22 03:23:24;;;;;;;1.20;0.65;;;;;;;9.62;100.00;99776.88;5142926;28;20517;-79
2020/12/22 03:25:54;;;;;;;0.73;0.60;;;;;;;9.59;100.00;99763.94;5142917;28;20042;-79
2020/12/22 03:28:24;;;;;;;0.75;0.73;;;;;;;9.64;100.00;99744.56;5149447;28;20029;-79
2020/12/22 03:30:54;;;;;;;1.25;0.90;;;;;;;9.61;100.00;99759.50;5161094;28;20109;-79
2020/12/22 03:33:25;;;;;;;2.03;0.93;;;;;;;9.69;100.00;99747.00;5154919;28;20026;-79
2020/12/22 03:35:55;;;;;;;1.38;0.93;;;;;;;9.64;100.00;99747.19;5153771;28;20551;-80
2020/12/22 03:38:25;;;;;;;1.08;0.90;;;;;;;9.72;100.00;99746.84;5153192;28;20034;-79
2020/12/22 03:40:56;;;;;;;1.30;0.80;;;;;;;9.71;100.00;99747.75;5160033;28;20026;-79
2020/12/22 03:43:26;;;;;;;1.55;0.82;;;;;;;9.73;100.00;99732.88;5162036;28;20037;-80
2020/12/22 03:45:57;;;;;;;0.70;0.65;;;;;;;9.75;100.00;99729.28;5162616;28;20543;-80
2020/12/22 03:48:27;;;;;;;2.60;0.77;;;;;;;9.78;100.00;99731.75;5162563;28;20025;-79
2020/12/22 03:50:57;;;;;;;0.70;0.60;;;;;;;9.84;100.00;99736.69;5162184;28;20106;-80
2020/12/22 03:53:27;;;;;;;1.00;0.70;;;;;;;9.84;100.00;99728.84;5161740;28;20018;-79
2020/12/22 03:55:58;;;;;;;1.20;0.60;;;;;;;9.90;100.00;99735.56;5159404;28;20022;-80
2020/12/22 03:58:28;;;;;;;0.98;0.63;;;;;;;9.92;100.00;99731.97;5158354;28;20022;-80
2020/12/22 04:00:58;;;;;;;0.70;0.60;;;;;;;9.93;100.00;99740.63;5161081;28;20105;-80
2020/12/22 04:03:29;;;;;;;2.90;0.63;;;;;;;10.00;100.00;99734.22;5156966;28;20038;-79
2020/12/22 04:05:59;;;;;;;0.93;0.50;;;;;;;10.02;100.00;99725.44;5159285;28;20018;-79
2020/12/22 04:08:29;;;;;;;1.33;0.63;;;;;;;10.10;100.00;99723.31;5163006;28;20022;-79
2020/12/22 04:10:59;;;;;;;1.13;0.63;;;;;;;10.10;100.00;99727.69;5154121;28;20114;-79
2020/12/22 04:13:30;;;;;;;1.02;0.70;;;;;;;10.17;100.00;99716.03;5147525;28;20073;-79
2020/12/22 04:16:03;;;;;;;1.52;0.60;;;;;;;10.17;100.00;99729.94;5159940;28;20034;-79
2020/12/22 04:18:33;;;;;;;0.90;0.50;;;;;;;10.33;100.00;99730.91;5157794;28;20113;-80
2020/12/22 04:21:04;;;;;;;0.85;0.70;;;;;;;10.23;100.00;99728.78;5135603;28;20030;-80
2020/12/22 04:23:34;;;;;;;0.73;0.60;;;;;;;10.30;100.00;99724.97;5152817;28;20404;-79
2020/12/22 04:26:04;;;;;;;1.92;0.60;;;;;;;10.29;100.00;99725.88;5157801;28;20105;-79
2020/12/22 04:28:35;;;;;;;1.10;0.80;;;;;;;10.32;100.00;99726.59;5139238;28;20710;-79
2020/12/22 04:31:05;;;;;;;1.02;0.60;;;;;;;10.39;100.00;99724.53;5144129;28;20115;-80
2020/12/22 04:33:35;;;;;;;0.65;0.50;;;;;;;10.42;100.00;99740.06;5137924;28;20039;-80
2020/12/22 04:36:05;;;;;;;1.45;0.60;;;;;;;10.42;100.00;99732.22;5137881;28;20478;-80
2020/12/22 04:38:36;;;;;;;0.55;0.50;;;;;;;10.32;100.00;99742.25;5135672;28;20088;-79
2020/12/22 04:41:10;;;;;;;1.92;0.68;;;;;;;10.43;100.00;99740.00;5136227;28;20062;-80
2020/12/22 04:43:44;;;;;;;3.67;0.50;;;;;;;10.50;100.00;99735.31;5136366;28;20031;-81
2020/12/22 04:46:22;;;;;;;0.52;0.40;;;;;;;10.52;100.00;99738.69;5133684;28;20397;-80
2020/12/22 04:48:55;;;;;;;2.20;0.40;;;;;;;10.55;100.00;99738.53;5134942;28;20027;-80
2020/12/22 04:51:25;;;;;;;1.13;0.43;;;;;;;10.47;100.00;99732.81;5156766;28;20050;-80
2020/12/22 04:53:58;;;;;;;1.17;0.40;;;;;;;10.57;100.00;99734.09;5165190;28;20073;-79
2020/12/22 04:56:29;;;;;;;0.70;0.40;;;;;;;10.53;100.00;99719.50;5163385;28;20054;-79
2020/12/22 04:59:00;;;;;;;1.10;0.70;;;;;;;10.51;100.00;99723.94;5162366;28;20041;-79
2020/12/22 05:01:31;;;;;;;0.75;0.50;;;;;;;10.45;100.00;99734.69;5169456;28;20101;-79
2020/12/22 05:04:02;;;;;;;1.67;0.70;;;;;;;10.42;100.00;99740.06;5164354;28;20034;-81
2020/12/22 05:06:32;;;;;;;0.98;0.70;;;;;;;10.44;100.00;99728.63;5164868;28;20089;-80
2020/12/22 05:09:02;;;;;;;1.35;0.63;;;;;;;10.49;100.00;99731.03;5171853;28;20022;-81
2020/12/22 05:11:36;;;;;;;1.45;0.60;;;;;;;10.46;100.00;99720.69;5174248;28;20109;-80
2020/12/22 05:14:07;;;;;;;0.77;0.50;;;;;;;10.40;100.00;99726.22;5174206;28;20396;-81
2020/12/22 05:16:37;;;;;;;0.75;0.52;;;;;;;10.39;100.00;99734.97;5175531;28;20049;-81
2020/12/22 05:19:10;;;;;;;1.08;0.68;;;;;;;10.50;100.00;99717.88;5176201;28;20033;-80
2020/12/22 05:21:40;;;;;;;3.85;0.82;;;;;;;10.47;100.00;99706.72;5176039;28;20030;-81
2020/12/22 05:24:12;;;;;;;1.70;0.70;;;;;;;10.45;100.00;99719.88;5175553;28;20023;-81
2020/12/22 05:26:43;;;;;;;4.32;0.60;;;;;;;10.43;100.00;99716.47;5152229;28;20253;-81
2020/12/22 05:29:16;;;;;;;0.93;0.70;;;;;;;10.52;100.00;99717.81;5155581;28;20014;-81
2020/12/22 05:31:50;;;;;;;1.55;0.73;;;;;;;10.46;100.00;99720.69;5156223;28;20041;-81
2020/12/22 05:34:21;;;;;;;0.70;0.68;;;;;;;10.51;100.00;99713.50;5154675;28;20029;-81
2020/12/22 05:36:51;;;;;;;3.03;0.90;;;;;;;10.56;100.00;99714.09;5154652;28;20031;-81
2020/12/22 05:39:22;;;;;;;0.93;0.70;;;;;;;10.61;100.00;99720.81;5155235;28;20113;-81
2020/12/22 05:41:52;;;;;;;1.08;0.60;;;;;;;10.55;100.00;99707.19;5156186;28;20027;-81
2020/12/22 05:44:24;;;;;;;2.95;0.75;;;;;;;10.62;100.00;99712.03;5154363;28;20030;-81
2020/12/22 05:46:58;;;;;;;1.38;0.70;;;;;;;10.56;100.00;99708.88;5156459;28;20519;-81
2020/12/22 05:49:29;;;;;;;2.75;0.60;;;;;;;10.61;100.00;99705.13;5154745;28;20543;-81
2020/12/22 05:52:00;;;;;;;0.77;0.50;;;;;;;10.64;100.00;99710.19;5155935;28;20046;-81
2020/12/22 05:54:31;;;;;;;1.60;0.75;;;;;;;10.65;100.00;99708.44;5155532;28;20038;-81
2020/12/22 05:57:05;;;;;;;1.67;0.80;;;;;;;10.67;100.00;99696.16;5137517;28;20019;-81
2020/12/22 05:59:35;;;;;;;3.17;0.63;;;;;;;10.78;100.00;99707.75;5162987;28;20415;-81
2020/12/22 06:02:06;;;;;;;2.17;0.73;;;;;;;10.78;100.00;99701.66;5174464;28;20113;-81
2020/12/22 06:04:36;;;;;;;3.65;0.70;;;;;;;10.83;100.00;99702.28;5165882;28;20026;-81
2020/12/22 06:07:06;;;;;;;1.05;0.60;;;;;;;10.81;100.00;99704.13;5171206;28;20037;-81
2020/12/22 06:09:37;;;;;;;2.03;0.88;;;;;;;10.84;100.00;99701.38;5175209;28;20022;-80
2020/12/22 06:12:07;;;;;;;3.38;0.50;;;;;;;10.88;100.00;99705.50;5158365;28;20039;-81
2020/12/22 06:14:42;;;;;;;0.55;0.50;;;;;;;10.93;100.00;99706.13;5154759;28;20038;-81
2020/12/22 06:17:13;;;;;;;0.87;0.50;;;;;;;10.86;100.00;99699.53;5156088;28;20035;-81
2020/12/22 06:19:44;;;;;;;2.15;0.40;;;;;;;10.94;100.00;99705.19;5149776;28;20348;-79
2020/12/22 06:22:18;;;;;;;0.73;0.50;;;;;;;10.96;100.00;99705.97;5146797;28;20018;-80
2020/12/22 06:24:52;;;;;;;1.10;0.40;;;;;;;10.98;100.00;99706.72;5144974;28;20077;-80
2020/12/22 06:27:30;;;;;;;0.82;0.50;;;;;;;11.02;100.00;99704.75;5146852;28;20101;-80
2020/12/22 06:30:01;;;;;;;1.95;1.45;;;;;;;11.07;100.00;99699.28;5166392;28;20030;-79
2020/12/22 06:32:31;;;;;;;2.63;1.38;;;;;;;11.01;100.00;99709.22;5163396;28;20501;-82
2020/12/22 06:35:31;;;;;;;2.53;1.05;;;;;;;11.13;100.00;99709.41;5143487;28;20023;-80
2020/12/22 06:38:02;;;;;;;2.08;1.00;;;;;;;11.14;100.00;99716.34;5147525;28;20019;-81
2020/12/22 06:41:01;;;;;;;1.20;0.80;;;;;;;11.13;100.00;99718.09;5146991;28;20366;-80
2020/12/22 06:43:38;;;;;;;0.93;0.65;;;;;;;11.19;100.00;99715.19;5125247;28;20108;-80
2020/12/22 06:46:29;;;;;;;1.05;0.60;;;;;;;11.19;100.00;99709.94;5146837;28;20081;-80
2020/12/22 06:49:05;;;;;;;2.30;0.75;;;;;;;11.17;100.00;99714.41;5148140;28;20023;-81
2020/12/22 06:51:37;;;;;;;1.05;0.68;;;;;;;11.20;100.00;99716.88;5154265;28;20648;-81
2020/12/22 06:54:27;;;;;;;0.98;0.50;;;;;;;11.18;100.00;99723.09;5153899;28;20035;-81
2020/12/22 06:56:58;;;;;;;1.52;0.50;;;;;;;11.19;100.00;99728.25;5154173;28;20027;-81
2020/12/22 06:59:40;;;;;;;1.30;0.57;;;;;;;11.16;100.00;99709.25;5154075;28;20034;-81
2020/12/22 07:02:29;;;;;;;3.92;0.52;;;;;;;11.26;100.00;99728.78;5154066;28;20066;-81
2020/12/22 07:05:00;;;;;;;1.85;0.50;;;;;;;11.23;100.00;99724.53;5145365;28;20038;-79
2020/12/22 07:07:56;;;;;;;1.23;0.50;;;;;;;11.26;100.00;99734.03;5149489;28;20025;-81
2020/12/22 07:10:28;;;;;;;1.42;0.60;;;;;;;11.21;100.00;99738.63;5153857;28;20034;-82
2020/12/22 07:12:59;;;;;;;1.83;0.77;;;;;;;11.21;100.00;99742.09;5154195;28;20045;-81
2020/12/22 07:15:43;;;;;;;2.38;1.10;;;;;;;11.22;100.00;99741.16;5154941;28;20065;-81
2020/12/22 07:18:28;;;;;;;3.50;1.08;;;;;;;11.17;100.00;99748.41;5152030;28;20027;-81
2020/12/22 07:20:59;;;;;;;3.75;1.40;;;;;;;11.16;100.00;99754.56;5153463;28;20074;-81
2020/12/22 07:23:30;;;;;;;3.88;1.45;;;;;;;11.02;100.00;99762.25;5152018;28;20030;-81
2020/12/22 07:26:00;;;;;;;4.03;1.80;;;;;;;11.06;100.00;99770.78;5153543;28;20057;-81
2020/12/22 07:28:31;;;;;;;5.20;2.22;;;;;;;11.08;100.00;99758.50;5163385;28;20019;-81
2020/12/22 07:31:01;;;;;;;10.30;3.42;;;;;;;11.17;100.00;99758.88;5154100;28;20040;-81
2020/12/22 07:33:31;;;;;;;8.27;3.50;;;;;;;11.18;100.00;99762.31;5151031;28;20030;-81
2020/12/22 07:36:01;;;;;;;6.45;3.00;;;;;;;11.21;100.00;99775.22;5148036;28;20031;-80
2020/12/22 07:38:32;;;;;;;7.82;3.30;;;;;;;11.26;100.00;99763.63;5143757;28;20038;-80
2020/12/22 07:41:02;;;;;;;5.30;2.63;;;;;;;11.32;100.00;99772.94;5144289;28;20030;-80
2020/12/22 07:43:32;;;;;;;5.60;2.45;;;;;;;11.31;100.00;99779.91;5127145;28;20042;-80
2020/12/22 07:46:02;;;;;;;3.90;1.90;;;;;;;11.40;100.00;99779.47;5144190;28;20027;-80
2020/12/22 07:48:33;;;;;;;5.53;3.10;;;;;;;11.40;100.00;99771.59;5144996;28;20035;-79
2020/12/22 07:51:03;;;;;;;5.22;2.53;;;;;;;11.34;100.00;99779.78;5145272;28;20019;-80
2020/12/22 07:53:33;;;;;;;7.03;2.60;;;;;;;11.38;100.00;99783.06;5145706;28;20198;-80
2020/12/22 07:56:04;;;;;;;9.32;4.10;;;;;;;11.41;100.00;99789.00;5144898;28;20042;-80
2020/12/22 07:58:35;;;;;;;6.72;2.80;;;;;;;11.50;100.00;99792.91;5144737;28;20026;-78
2020/12/22 08:01:08;;;;;;;7.40;2.70;;;;;;;11.50;100.00;99804.22;5141590;28;20460;-78
2020/12/22 08:03:38;;;;;;;3.83;2.20;;;;;;;11.57;100.00;99805.63;5150354;28;20034;-77
2020/12/22 08:06:10;;;;;;;5.88;1.95;;;;;;;11.56;100.00;99803.09;5160522;28;20026;-78
2020/12/22 08:08:40;;;;;;;4.50;2.30;;;;;;;11.56;100.00;99806.56;5163496;28;20023;-77
2020/12/22 08:11:20;;;;;;;3.63;1.73;;;;;;;11.58;100.00;99812.56;5157764;28;20038;-79
2020/12/22 08:13:52;;;;;;;2.92;1.70;;;;;;;11.62;100.00;99808.84;5164699;28;20076;-78
2020/12/22 08:16:24;;;;;;;2.42;1.20;;;;;;;11.64;100.00;99821.88;5151387;28;20042;-77
2020/12/22 08:18:55;;;;;;;2.08;1.30;;;;;;;11.63;100.00;99825.41;5145251;28;20050;-78
2020/12/22 08:21:25;;;;;;;3.17;1.48;;;;;;;11.74;100.00;99828.28;5144164;28;20069;-78
2020/12/22 08:23:58;;;;;;;3.50;2.00;;;;;;;11.72;100.00;99833.63;5144411;28;20101;-78
2020/12/22 08:26:28;;;;;;;4.53;2.35;;;;;;;11.61;100.00;99838.56;5154106;28;20123;-77
2020/12/22 08:29:02;;;;;;;5.45;2.42;;;;;;;11.58;100.00;99833.50;5145302;28;20023;-77
2020/12/22 08:31:35;;;;;;;4.38;2.38;;;;;;;11.53;100.00;99840.72;5148990;28;20251;-77
2020/12/22 08:34:07;;;;;;;3.85;1.65;;;;;;;11.56;100.00;99840.56;5144855;28;20054;-78
2020/12/22 08:36:37;;;;;;;3.55;1.60;;;;;;;11.61;100.00;99837.72;5145043;28;20035;-77
2020/12/22 08:39:18;;;;;;;3.38;1.58;;;;;;;11.66;100.00;99849.66;5144741;28;20524;-77
2020/12/22 08:41:50;;;;;;;5.07;1.70;;;;;;;11.65;100.00;99847.94;5144622;28;20033;-78
2020/12/22 08:44:22;;;;;;;3.53;1.90;;;;;;;11.76;100.00;99848.25;5144227;28;20031;-78
2020/12/22 08:46:54;;;;;;;6.78;2.10;;;;;;;11.78;100.00;99851.63;5144444;28;20030;-78
2020/12/22 08:49:31;;;;;;;4.95;2.00;;;;;;;11.74;100.00;99850.09;5143769;28;20681;-77
2020/12/22 08:52:14;;;;;;;5.40;1.73;;;;;;;11.87;100.00;99859.00;5144488;28;20035;-77
2020/12/22 08:54:48;;;;;;;2.85;2.10;;;;;;;11.80;100.00;99867.25;5143630;28;20037;-77
2020/12/22 08:57:23;;;;;;;5.85;2.50;;;;;;;11.79;100.00;99874.25;5143975;28;20019;-77
2020/12/22 08:59:53;;;;;;;9.80;4.72;;;;;;;11.98;100.00;99868.91;5143905;28;20015;-77
2020/12/22 09:02:29;;;;;;;4.72;2.28;;;;;;;11.92;100.00;99880.56;5143644;28;20039;-77
2020/12/22 09:05:10;;;;;;;12.88;2.75;;;;;;;11.87;100.00;99886.94;5143942;28;20062;-78
2020/12/22 09:07:42;;;;;;;5.25;2.30;;;;;;;11.88;100.00;99886.88;5143059;28;20027;-78
2020/12/22 09:10:12;;;;;;;5.88;2.55;;;;;;;11.89;100.00;99885.09;5144733;28;20053;-76
2020/12/22 09:12:42;;;;;;;5.38;2.20;;;;;;;11.96;100.00;99889.13;5144354;28;20026;-77
2020/12/22 09:15:12;;;;;;;4.10;2.30;;;;;;;11.99;100.00;99895.00;5144768;28;20062;-75
2020/12/22 09:17:43;;;;;;;4.72;2.80;;;;;;;11.87;100.00;99898.28;5144731;28;20748;-75
2020/12/22 09:20:22;;;;;;;3.15;2.47;;;;;;;11.86;100.00;99912.31;5143436;28;20027;-77
2020/12/22 09:23:03;;;;;;;9.60;2.58;;;;;;;11.90;100.00;99903.34;5144031;28;20113;-78
2020/12/22 09:25:33;;;;;;;6.07;3.10;;;;;;;11.88;100.00;99899.97;5144346;28;20165;-78
2020/12/22 09:28:04;;;;;;;4.40;2.80;;;;;;;12.01;100.00;99903.66;5144694;28;20536;-77
2020/12/22 09:30:36;;;;;;;5.40;2.50;;;;;;;12.00;100.00;99920.31;5153392;28;20295;-76
2020/12/22 09:33:06;;;;;;;7.53;2.75;;;;;;;12.04;100.00;99924.44;5143544;28;20054;-77
2020/12/22 09:35:37;;;;;;;5.10;2.60;;;;;;;12.14;100.00;99928.25;5144287;28;20108;-78
2020/12/22 09:38:07;;;;;;;4.22;2.38;;;;;;;12.06;100.00;99927.84;5144180;28;20282;-77
2020/12/22 09:40:37;;;;;;;6.22;2.67;;;;;;;12.00;100.00;99917.69;5144072;28;20894;-77
2020/12/22 09:43:07;;;;;;;2.80;2.20;;;;;;;12.03;100.00;99935.84;5142939;28;20027;-77
2020/12/22 09:45:38;;;;;;;3.20;2.20;;;;;;;12.10;100.00;99937.22;5144046;28;20397;-77
2020/12/22 09:48:08;;;;;;;4.00;2.43;;;;;;;12.22;100.00;99930.50;5143562;28;20022;-78
2020/12/22 09:50:38;;;;;;;4.22;2.20;;;;;;;12.31;100.00;99925.59;5142806;28;20779;-77
2020/12/22 09:53:08;;;;;;;3.50;2.13;;;;;;;12.46;100.00;99935.28;5143308;28;20460;-77
2020/12/22 09:55:39;;;;;;;4.17;2.00;;;;;;;12.44;100.00;99929.28;5144007;28;20732;-78
2020/12/22 09:58:09;;;;;;;4.33;1.57;;;;;;;12.63;100.00;99932.59;5143660;28;20669;-78
2020/12/22 10:00:43;;;;;;;5.23;1.70;;;;;;;12.76;100.00;99933.63;5142261;28;20344;-78
2020/12/22 10:03:13;;;;;;;2.85;1.48;;;;;;;12.85;100.00;99935.72;5143846;28;20337;-78
2020/12/22 10:05:43;;;;;;;5.57;2.58;;;;;;;13.07;100.00;99938.91;5140235;28;20090;-77
2020/12/22 10:08:13;;;;;;;6.13;1.60;;;;;;;13.21;100.00;99931.13;5144835;28;20027;-78
2020/12/22 10:10:44;;;;;;;6.45;1.23;;;;;;;13.41;100.00;99926.41;5146114;28;20282;-78
2020/12/22 10:13:14;;;;;;;3.60;0.83;;;;;;;13.47;100.00;99917.34;5143451;28;20182;-78
2020/12/22 10:15:45;;;;;;;4.45;1.10;;;;;;;13.37;100.00;99931.94;5144687;28;20282;-78
2020/12/22 10:18:15;;;;;;;5.88;0.68;;;;;;;13.30;100.00;99941.09;5144407;28;20035;-77
2020/12/22 10:20:46;;;;;;;0.98;0.70;;;;;;;13.29;100.00;99929.75;5145321;28;20023;-78
2020/12/22 10:23:16;;;;;;;2.83;0.60;;;;;;;13.19;100.00;99939.06;5145674;28;20030;-79
2020/12/22 10:25:46;;;;;;;2.65;0.75;;;;;;;13.21;100.00;99944.25;5144679;28;20084;-78
2020/12/22 10:28:16;;;;;;;3.40;1.58;;;;;;;13.18;100.00;99947.88;5145381;28;20022;-78
2020/12/22 10:30:47;;;;;;;5.57;1.98;;;;;;;13.09;100.00;99947.53;5145360;28;20487;-77
2020/12/22 10:33:17;;;;;;;5.80;1.90;;;;;;;13.07;100.00;99942.38;5144724;28;20030;-79
2020/12/22 10:35:47;;;;;;;2.95;1.15;;;;;;;13.05;100.00;99946.88;5146391;28;20026;-78
2020/12/22 10:38:18;;;;;;;3.20;1.20;;;;;;;13.05;100.00;99940.78;5146100;28;20073;-79
2020/12/22 10:40:49;;;;;;;4.40;0.90;;;;;;;12.98;100.00;99940.28;5145518;28;20027;-79
2020/12/22 10:43:20;;;;;;;2.03;0.90;;;;;;;12.93;100.00;99942.28;5145549;28;20109;-77
2020/12/22 10:45:50;;;;;;;2.53;1.20;;;;;;;12.99;100.00;99944.59;5144405;28;20422;-77
2020/12/22 10:48:20;;;;;;;1.85;1.02;;;;;;;13.01;100.00;99949.72;5149477;28;20130;-78
2020/12/22 10:50:51;;;;;;;2.58;1.00;;;;;;;12.94;100.00;99953.63;5163827;28;20081;-78
2020/12/22 10:53:21;;;;;;;4.35;1.20;;;;;;;12.99;100.00;99954.22;5164224;28;20061;-78
2020/12/22 10:55:53;;;;;;;5.07;1.15;;;;;;;12.84;100.00;99952.41;5160098;28;20030;-78
2020/12/22 10:58:24;;;;;;;3.28;1.52;;;;;;;13.02;100.00;99957.53;5143716;28;20015;-78
2020/12/22 11:00:54;;;;;;;3.85;1.40;;;;;;;12.99;100.00;99967.34;5126025;28;20037;-75
2020/12/22 11:03:25;;;;;;;3.38;1.70;;;;;;;12.93;100.00;99961.56;5143700;28;20072;-78
2020/12/22 11:06:06;;;;;;;5.15;2.30;;;;;;;12.96;100.00;99966.69;5142877;28;20038;-78
2020/12/22 11:08:41;;;;;;;16.40;9.35;;;;;;;12.96;100.00;99971.94;5143038;28;20027;-78
2020/12/22 11:11:11;;;;;;;4.30;2.40;;;;;;;13.01;100.00;99973.34;5145000;28;20038;-79
2020/12/22 11:13:42;;;;;;;6.47;2.55;;;;;;;12.95;100.00;99965.81;5143791;28;20027;-80
2020/12/22 11:16:12;;;;;;;4.35;1.45;;;;;;;13.09;100.00;99971.16;5157428;28;20081;-80
2020/12/22 11:18:42;;;;;;;7.28;2.85;;;;;;;13.23;100.00;99968.63;5163451;28;20062;-81
2020/12/22 11:21:13;;;;;;;4.13;2.17;;;;;;;13.32;100.00;99970.72;5163551;28;20041;-76
2020/12/22 11:23:47;;;;;;;6.53;2.40;;;;;;;13.24;100.00;99973.75;5162696;28;20034;-78
2020/12/22 11:26:22;;;;;;;4.72;1.45;;;;;;;13.33;100.00;99964.53;5162444;28;20080;-76
2020/12/22 11:28:53;;;;;;;2.97;1.50;;;;;;;13.44;100.00;99972.66;5152676;28;20022;-78
2020/12/22 11:31:23;;;;;;;2.15;1.20;;;;;;;13.37;100.00;99979.19;5147425;28;20038;-78
2020/12/22 11:33:54;;;;;;;2.92;1.65;;;;;;;13.46;100.00;99976.91;5147153;28;20070;-78
2020/12/22 11:36:24;;;;;;;4.18;1.70;;;;;;;13.47;100.00;99975.09;5142276;28;20061;-79
2020/12/22 11:38:54;;;;;;;4.68;2.47;;;;;;;13.52;100.00;99979.16;5147536;28;20030;-80
2020/12/22 11:41:24;;;;;;;4.57;2.10;;;;;;;13.62;100.00;99987.34;5162731;28;20026;-80
2020/12/22 11:43:55;;;;;;;4.05;2.08;;;;;;;13.53;100.00;99995.75;5143539;28;20299;-81
2020/12/22 11:46:25;;;;;;;4.32;2.88;;;;;;;13.49;100.00;99989.84;5142065;28;20038;-80
2020/12/22 11:48:55;;;;;;;4.22;2.10;;;;;;;13.46;100.00;99995.28;5141248;28;20033;-81